sensor_id;sensor_type;location;lat;lon;timestamp;P1;durP1;ratioP1;P2;durP2;ratioP2
47555;SDS011;33291;46.222;26.460;2023-11-22T00:01:15;5.78;;;3.92;;
47555;SDS011;33291;46.222;26.460;2023-11-22T00:03:41;7.70;;;3.40;;
47555;SDS011;33291;46.222;26.460;2023-11-22T00:06:06;2.83;;;1.52;;
47555;SDS011;33291;46.222;26.460;2023-11-22T00:08:32;3.80;;;2.80;;
47555;SDS011;33291;46.222;26.460;2023-11-22T00:10:58;4.13;;;2.45;;
47555;SDS011;33291;46.222;26.460;2023-11-22T00:13:24;9.18;;;1.45;;
47555;SDS011;33291;46.222;26.460;2023-11-22T00:15:49;6.95;;;2.55;;
47555;SDS011;33291;46.222;26.460;2023-11-22T00:18:15;5.32;;;2.38;;
47555;SDS011;33291;46.222;26.460;2023-11-22T00:20:41;2.63;;;1.20;;
47555;SDS011;33291;46.222;26.460;2023-11-22T00:23:06;3.10;;;0.88;;
47555;SDS011;33291;46.222;26.460;2023-11-22T00:25:32;0.85;;;0.50;;
47555;SDS011;33291;46.222;26.460;2023-11-22T00:27:58;0.95;;;0.45;;
47555;SDS011;33291;46.222;26.460;2023-11-22T00:30:24;2.60;;;0.95;;
47555;SDS011;33291;46.222;26.460;2023-11-22T00:32:49;4.05;;;0.98;;
47555;SDS011;33291;46.222;26.460;2023-11-22T00:35:15;0.70;;;0.40;;
47555;SDS011;33291;46.222;26.460;2023-11-22T00:37:40;2.65;;;1.25;;
47555;SDS011;33291;46.222;26.460;2023-11-22T00:40:06;8.27;;;4.38;;
47555;SDS011;33291;46.222;26.460;2023-11-22T00:42:38;3.13;;;1.70;;
47555;SDS011;33291;46.222;26.460;2023-11-22T00:45:05;2.33;;;0.77;;
47555;SDS011;33291;46.222;26.460;2023-11-22T00:47:34;1.55;;;0.90;;
47555;SDS011;33291;46.222;26.460;2023-11-22T00:49:59;2.60;;;0.70;;
47555;SDS011;33291;46.222;26.460;2023-11-22T00:52:26;1.02;;;0.50;;
47555;SDS011;33291;46.222;26.460;2023-11-22T00:54:51;2.28;;;1.17;;
47555;SDS011;33291;46.222;26.460;2023-11-22T00:57:17;5.80;;;1.60;;
47555;SDS011;33291;46.222;26.460;2023-11-22T00:59:42;13.18;;;4.78;;
47555;SDS011;33291;46.222;26.460;2023-11-22T01:02:08;11.85;;;4.05;;
47555;SDS011;33291;46.222;26.460;2023-11-22T01:04:34;5.50;;;2.50;;
47555;SDS011;33291;46.222;26.460;2023-11-22T01:07:01;7.22;;;3.08;;
47555;SDS011;33291;46.222;26.460;2023-11-22T01:09:29;7.47;;;1.90;;
47555;SDS011;33291;46.222;26.460;2023-11-22T01:11:55;6.43;;;1.58;;
47555;SDS011;33291;46.222;26.460;2023-11-22T01:14:21;2.13;;;1.10;;
47555;SDS011;33291;46.222;26.460;2023-11-22T01:16:46;4.03;;;0.68;;
47555;SDS011;33291;46.222;26.460;2023-11-22T01:19:13;0.98;;;0.60;;
47555;SDS011;33291;46.222;26.460;2023-11-22T01:21:38;1.67;;;0.60;;
47555;SDS011;33291;46.222;26.460;2023-11-22T01:24:04;1.00;;;0.40;;
47555;SDS011;33291;46.222;26.460;2023-11-22T01:26:29;2.13;;;0.80;;
47555;SDS011;33291;46.222;26.460;2023-11-22T01:28:55;1.10;;;0.68;;
47555;SDS011;33291;46.222;26.460;2023-11-22T01:31:21;6.63;;;0.60;;
47555;SDS011;33291;46.222;26.460;2023-11-22T01:33:47;5.10;;;0.52;;
47555;SDS011;33291;46.222;26.460;2023-11-22T01:36:13;1.50;;;0.52;;
47555;SDS011;33291;46.222;26.460;2023-11-22T01:38:40;1.17;;;0.60;;
47555;SDS011;33291;46.222;26.460;2023-11-22T01:41:06;1.08;;;0.65;;
47555;SDS011;33291;46.222;26.460;2023-11-22T01:43:32;1.98;;;0.45;;
47555;SDS011;33291;46.222;26.460;2023-11-22T01:45:57;0.77;;;0.40;;
47555;SDS011;33291;46.222;26.460;2023-11-22T01:48:23;1.52;;;0.82;;
47555;SDS011;33291;46.222;26.460;2023-11-22T01:50:49;1.30;;;0.65;;
47555;SDS011;33291;46.222;26.460;2023-11-22T01:53:15;1.75;;;0.50;;
47555;SDS011;33291;46.222;26.460;2023-11-22T01:55:42;1.42;;;0.60;;
47555;SDS011;33291;46.222;26.460;2023-11-22T01:58:08;1.67;;;0.93;;
47555;SDS011;33291;46.222;26.460;2023-11-22T02:03:29;4.05;;;2.10;;
47555;SDS011;33291;46.222;26.460;2023-11-22T02:05:55;3.45;;;1.60;;
47555;SDS011;33291;46.222;26.460;2023-11-22T02:08:21;6.90;;;2.97;;
47555;SDS011;33291;46.222;26.460;2023-11-22T02:10:56;9.95;;;5.20;;
47555;SDS011;33291;46.222;26.460;2023-11-22T02:13:22;11.07;;;6.38;;
47555;SDS011;33291;46.222;26.460;2023-11-22T02:15:48;14.35;;;6.57;;
47555;SDS011;33291;46.222;26.460;2023-11-22T02:18:14;10.88;;;6.07;;
47555;SDS011;33291;46.222;26.460;2023-11-22T02:20:39;13.02;;;6.90;;
47555;SDS011;33291;46.222;26.460;2023-11-22T02:23:09;9.63;;;5.07;;
47555;SDS011;33291;46.222;26.460;2023-11-22T02:25:36;9.02;;;5.45;;
47555;SDS011;33291;46.222;26.460;2023-11-22T02:28:02;7.20;;;4.05;;
47555;SDS011;33291;46.222;26.460;2023-11-22T02:30:28;8.18;;;4.35;;
47555;SDS011;33291;46.222;26.460;2023-11-22T02:32:53;4.85;;;2.78;;
47555;SDS011;33291;46.222;26.460;2023-11-22T02:35:19;10.30;;;4.90;;
47555;SDS011;33291;46.222;26.460;2023-11-22T02:37:45;8.43;;;4.15;;
47555;SDS011;33291;46.222;26.460;2023-11-22T02:40:20;7.78;;;3.78;;
47555;SDS011;33291;46.222;26.460;2023-11-22T02:42:47;8.68;;;4.38;;
47555;SDS011;33291;46.222;26.460;2023-11-22T02:45:16;9.95;;;4.18;;
47555;SDS011;33291;46.222;26.460;2023-11-22T02:47:43;12.13;;;4.20;;
47555;SDS011;33291;46.222;26.460;2023-11-22T02:50:15;15.30;;;7.45;;
47555;SDS011;33291;46.222;26.460;2023-11-22T02:52:41;11.93;;;7.00;;
47555;SDS011;33291;46.222;26.460;2023-11-22T02:55:07;30.83;;;15.40;;
47555;SDS011;33291;46.222;26.460;2023-11-22T02:57:34;23.50;;;11.00;;
47555;SDS011;33291;46.222;26.460;2023-11-22T03:00:01;21.35;;;10.48;;
47555;SDS011;33291;46.222;26.460;2023-11-22T03:02:29;20.58;;;9.32;;
47555;SDS011;33291;46.222;26.460;2023-11-22T03:04:57;18.40;;;8.13;;
47555;SDS011;33291;46.222;26.460;2023-11-22T03:07:23;11.02;;;4.43;;
47555;SDS011;33291;46.222;26.460;2023-11-22T03:09:50;3.03;;;1.67;;
47555;SDS011;33291;46.222;26.460;2023-11-22T03:12:16;6.95;;;3.13;;
47555;SDS011;33291;46.222;26.460;2023-11-22T03:14:41;6.68;;;2.95;;
47555;SDS011;33291;46.222;26.460;2023-11-22T03:17:07;5.63;;;2.40;;
47555;SDS011;33291;46.222;26.460;2023-11-22T03:19:33;6.55;;;2.33;;
47555;SDS011;33291;46.222;26.460;2023-11-22T03:21:59;6.53;;;2.20;;
47555;SDS011;33291;46.222;26.460;2023-11-22T03:24:27;3.05;;;1.50;;
47555;SDS011;33291;46.222;26.460;2023-11-22T03:26:54;2.10;;;0.63;;
47555;SDS011;33291;46.222;26.460;2023-11-22T03:29:21;2.10;;;0.82;;
47555;SDS011;33291;46.222;26.460;2023-11-22T03:31:46;5.28;;;1.92;;
47555;SDS011;33291;46.222;26.460;2023-11-22T03:34:12;3.08;;;1.20;;
47555;SDS011;33291;46.222;26.460;2023-11-22T03:36:40;0.98;;;0.77;;
47555;SDS011;33291;46.222;26.460;2023-11-22T03:39:05;2.40;;;0.85;;
47555;SDS011;33291;46.222;26.460;2023-11-22T03:41:31;2.58;;;0.57;;
47555;SDS011;33291;46.222;26.460;2023-11-22T03:43:56;2.85;;;1.38;;
47555;SDS011;33291;46.222;26.460;2023-11-22T03:46:22;5.05;;;2.00;;
47555;SDS011;33291;46.222;26.460;2023-11-22T03:48:47;0.88;;;0.60;;
47555;SDS011;33291;46.222;26.460;2023-11-22T03:51:12;0.45;;;0.43;;
47555;SDS011;33291;46.222;26.460;2023-11-22T03:53:38;3.13;;;1.50;;
47555;SDS011;33291;46.222;26.460;2023-11-22T03:56:03;3.97;;;1.73;;
47555;SDS011;33291;46.222;26.460;2023-11-22T03:58:29;2.47;;;1.10;;
47555;SDS011;33291;46.222;26.460;2023-11-22T04:00:55;3.78;;;1.08;;
47555;SDS011;33291;46.222;26.460;2023-11-22T04:03:20;1.55;;;1.00;;
47555;SDS011;33291;46.222;26.460;2023-11-22T04:05:46;1.98;;;0.85;;
47555;SDS011;33291;46.222;26.460;2023-11-22T04:08:11;1.02;;;0.63;;
47555;SDS011;33291;46.222;26.460;2023-11-22T04:10:36;4.00;;;1.15;;
47555;SDS011;33291;46.222;26.460;2023-11-22T04:13:02;2.50;;;1.15;;
47555;SDS011;33291;46.222;26.460;2023-11-22T04:15:27;2.75;;;1.25;;
47555;SDS011;33291;46.222;26.460;2023-11-22T04:17:53;2.75;;;1.13;;
47555;SDS011;33291;46.222;26.460;2023-11-22T04:20:21;1.60;;;0.50;;
47555;SDS011;33291;46.222;26.460;2023-11-22T04:22:47;0.70;;;0.40;;
47555;SDS011;33291;46.222;26.460;2023-11-22T04:25:12;0.65;;;0.32;;
47555;SDS011;33291;46.222;26.460;2023-11-22T04:27:40;0.70;;;0.70;;
47555;SDS011;33291;46.222;26.460;2023-11-22T04:30:07;0.65;;;0.40;;
47555;SDS011;33291;46.222;26.460;2023-11-22T04:32:34;8.77;;;0.80;;
47555;SDS011;33291;46.222;26.460;2023-11-22T04:35:01;3.78;;;0.82;;
47555;SDS011;33291;46.222;26.460;2023-11-22T04:37:29;0.73;;;0.50;;
47555;SDS011;33291;46.222;26.460;2023-11-22T04:39:57;1.35;;;0.75;;
47555;SDS011;33291;46.222;26.460;2023-11-22T04:42:23;1.42;;;0.68;;
47555;SDS011;33291;46.222;26.460;2023-11-22T04:44:49;1.63;;;0.70;;
47555;SDS011;33291;46.222;26.460;2023-11-22T04:47:14;2.15;;;0.70;;
47555;SDS011;33291;46.222;26.460;2023-11-22T04:49:40;5.75;;;1.00;;
47555;SDS011;33291;46.222;26.460;2023-11-22T04:52:05;9.88;;;0.95;;
47555;SDS011;33291;46.222;26.460;2023-11-22T04:54:31;1.15;;;0.73;;
47555;SDS011;33291;46.222;26.460;2023-11-22T04:56:57;4.28;;;1.05;;
47555;SDS011;33291;46.222;26.460;2023-11-22T04:59:23;3.15;;;1.35;;
47555;SDS011;33291;46.222;26.460;2023-11-22T05:01:49;3.25;;;1.30;;
47555;SDS011;33291;46.222;26.460;2023-11-22T05:04:14;0.70;;;0.60;;
47555;SDS011;33291;46.222;26.460;2023-11-22T05:06:40;3.17;;;1.02;;
47555;SDS011;33291;46.222;26.460;2023-11-22T05:09:05;3.35;;;1.02;;
47555;SDS011;33291;46.222;26.460;2023-11-22T05:11:31;1.67;;;0.80;;
47555;SDS011;33291;46.222;26.460;2023-11-22T05:13:57;2.42;;;2.20;;
47555;SDS011;33291;46.222;26.460;2023-11-22T05:16:22;1.75;;;1.08;;
47555;SDS011;33291;46.222;26.460;2023-11-22T05:18:49;7.35;;;2.25;;
47555;SDS011;33291;46.222;26.460;2023-11-22T05:21:15;1.75;;;1.20;;
47555;SDS011;33291;46.222;26.460;2023-11-22T05:23:41;2.30;;;0.77;;
47555;SDS011;33291;46.222;26.460;2023-11-22T05:26:06;2.38;;;0.93;;
47555;SDS011;33291;46.222;26.460;2023-11-22T05:28:33;2.03;;;1.58;;
47555;SDS011;33291;46.222;26.460;2023-11-22T05:30:59;5.38;;;1.75;;
47555;SDS011;33291;46.222;26.460;2023-11-22T05:33:24;2.40;;;0.98;;
47555;SDS011;33291;46.222;26.460;2023-11-22T05:35:50;4.50;;;2.28;;
47555;SDS011;33291;46.222;26.460;2023-11-22T05:38:15;1.83;;;0.63;;
47555;SDS011;33291;46.222;26.460;2023-11-22T05:40:41;5.95;;;1.25;;
47555;SDS011;33291;46.222;26.460;2023-11-22T05:43:08;6.78;;;1.20;;
47555;SDS011;33291;46.222;26.460;2023-11-22T05:45:34;3.47;;;0.90;;
47555;SDS011;33291;46.222;26.460;2023-11-22T05:48:00;1.52;;;0.95;;
47555;SDS011;33291;46.222;26.460;2023-11-22T05:50:25;3.85;;;1.48;;
47555;SDS011;33291;46.222;26.460;2023-11-22T05:52:51;8.43;;;1.20;;
47555;SDS011;33291;46.222;26.460;2023-11-22T05:55:16;2.72;;;1.08;;
47555;SDS011;33291;46.222;26.460;2023-11-22T05:57:43;9.45;;;3.35;;
47555;SDS011;33291;46.222;26.460;2023-11-22T06:00:09;2.65;;;1.80;;
47555;SDS011;33291;46.222;26.460;2023-11-22T06:02:35;7.22;;;3.65;;
47555;SDS011;33291;46.222;26.460;2023-11-22T06:05:04;9.90;;;4.93;;
47555;SDS011;33291;46.222;26.460;2023-11-22T06:07:31;4.25;;;1.48;;
47555;SDS011;33291;46.222;26.460;2023-11-22T06:09:56;5.15;;;1.27;;
47555;SDS011;33291;46.222;26.460;2023-11-22T06:12:22;3.63;;;1.40;;
47555;SDS011;33291;46.222;26.460;2023-11-22T06:14:48;2.10;;;0.98;;
47555;SDS011;33291;46.222;26.460;2023-11-22T06:17:13;5.00;;;1.77;;
47555;SDS011;33291;46.222;26.460;2023-11-22T06:19:39;3.10;;;1.10;;
47555;SDS011;33291;46.222;26.460;2023-11-22T06:22:06;1.35;;;0.68;;
47555;SDS011;33291;46.222;26.460;2023-11-22T06:24:32;6.63;;;2.40;;
47555;SDS011;33291;46.222;26.460;2023-11-22T06:27:01;31.25;;;12.73;;
47555;SDS011;33291;46.222;26.460;2023-11-22T06:29:27;53.35;;;21.90;;
47555;SDS011;33291;46.222;26.460;2023-11-22T06:31:52;21.77;;;9.23;;
47555;SDS011;33291;46.222;26.460;2023-11-22T06:34:18;4.68;;;2.60;;
47555;SDS011;33291;46.222;26.460;2023-11-22T06:36:44;4.05;;;1.77;;
47555;SDS011;33291;46.222;26.460;2023-11-22T06:39:09;8.07;;;3.67;;
47555;SDS011;33291;46.222;26.460;2023-11-22T06:41:38;6.05;;;4.07;;
47555;SDS011;33291;46.222;26.460;2023-11-22T06:44:04;8.77;;;2.95;;
47555;SDS011;33291;46.222;26.460;2023-11-22T06:46:30;6.75;;;1.55;;
47555;SDS011;33291;46.222;26.460;2023-11-22T06:48:55;3.55;;;1.33;;
47555;SDS011;33291;46.222;26.460;2023-11-22T06:51:21;7.00;;;2.05;;
47555;SDS011;33291;46.222;26.460;2023-11-22T06:53:47;10.07;;;2.90;;
47555;SDS011;33291;46.222;26.460;2023-11-22T06:56:12;7.93;;;3.53;;
47555;SDS011;33291;46.222;26.460;2023-11-22T06:58:38;7.53;;;3.42;;
47555;SDS011;33291;46.222;26.460;2023-11-22T07:01:03;6.72;;;3.20;;
47555;SDS011;33291;46.222;26.460;2023-11-22T07:03:29;6.68;;;3.28;;
47555;SDS011;33291;46.222;26.460;2023-11-22T07:05:54;6.07;;;3.33;;
47555;SDS011;33291;46.222;26.460;2023-11-22T07:08:21;10.43;;;5.15;;
47555;SDS011;33291;46.222;26.460;2023-11-22T07:10:47;6.80;;;3.10;;
47555;SDS011;33291;46.222;26.460;2023-11-22T07:13:13;7.47;;;3.67;;
47555;SDS011;33291;46.222;26.460;2023-11-22T07:15:38;17.70;;;6.32;;
47555;SDS011;33291;46.222;26.460;2023-11-22T07:18:05;13.18;;;5.70;;
47555;SDS011;33291;46.222;26.460;2023-11-22T07:20:31;12.55;;;4.75;;
47555;SDS011;33291;46.222;26.460;2023-11-22T07:22:57;9.65;;;4.32;;
47555;SDS011;33291;46.222;26.460;2023-11-22T07:25:25;12.18;;;4.90;;
47555;SDS011;33291;46.222;26.460;2023-11-22T07:27:51;13.63;;;4.85;;
47555;SDS011;33291;46.222;26.460;2023-11-22T07:30:18;15.02;;;5.82;;
47555;SDS011;33291;46.222;26.460;2023-11-22T07:32:45;72.30;;;29.48;;
47555;SDS011;33291;46.222;26.460;2023-11-22T07:35:11;37.08;;;14.23;;
47555;SDS011;33291;46.222;26.460;2023-11-22T07:37:40;25.42;;;10.15;;
47555;SDS011;33291;46.222;26.460;2023-11-22T07:40:07;12.57;;;6.43;;
47555;SDS011;33291;46.222;26.460;2023-11-22T07:42:37;11.55;;;5.50;;
47555;SDS011;33291;46.222;26.460;2023-11-22T07:45:03;9.23;;;4.38;;
47555;SDS011;33291;46.222;26.460;2023-11-22T07:47:29;10.88;;;4.70;;
47555;SDS011;33291;46.222;26.460;2023-11-22T07:49:55;9.80;;;5.35;;
47555;SDS011;33291;46.222;26.460;2023-11-22T07:52:23;12.38;;;5.95;;
47555;SDS011;33291;46.222;26.460;2023-11-22T07:54:57;6.95;;;4.35;;
47555;SDS011;33291;46.222;26.460;2023-11-22T07:57:24;8.32;;;4.47;;
47555;SDS011;33291;46.222;26.460;2023-11-22T07:59:50;8.85;;;4.80;;
47555;SDS011;33291;46.222;26.460;2023-11-22T08:02:20;9.07;;;4.25;;
47555;SDS011;33291;46.222;26.460;2023-11-22T08:04:45;7.50;;;4.57;;
47555;SDS011;33291;46.222;26.460;2023-11-22T08:07:11;6.78;;;4.10;;
47555;SDS011;33291;46.222;26.460;2023-11-22T08:09:40;8.35;;;5.10;;
47555;SDS011;33291;46.222;26.460;2023-11-22T08:12:06;6.63;;;4.00;;
47555;SDS011;33291;46.222;26.460;2023-11-22T08:14:32;6.55;;;3.78;;
47555;SDS011;33291;46.222;26.460;2023-11-22T08:16:58;11.05;;;4.68;;
47555;SDS011;33291;46.222;26.460;2023-11-22T08:19:24;7.35;;;4.68;;
47555;SDS011;33291;46.222;26.460;2023-11-22T08:21:49;8.63;;;5.30;;
47555;SDS011;33291;46.222;26.460;2023-11-22T08:24:16;7.63;;;4.57;;
47555;SDS011;33291;46.222;26.460;2023-11-22T08:26:43;10.32;;;5.97;;
47555;SDS011;33291;46.222;26.460;2023-11-22T08:29:10;10.38;;;5.95;;
47555;SDS011;33291;46.222;26.460;2023-11-22T08:31:36;9.57;;;4.25;;
47555;SDS011;33291;46.222;26.460;2023-11-22T08:34:02;7.65;;;3.72;;
47555;SDS011;33291;46.222;26.460;2023-11-22T08:36:31;11.70;;;5.63;;
47555;SDS011;33291;46.222;26.460;2023-11-22T08:38:59;8.77;;;4.93;;
47555;SDS011;33291;46.222;26.460;2023-11-22T08:41:28;9.80;;;4.72;;
47555;SDS011;33291;46.222;26.460;2023-11-22T08:43:55;9.40;;;4.47;;
47555;SDS011;33291;46.222;26.460;2023-11-22T08:46:21;7.68;;;4.15;;
47555;SDS011;33291;46.222;26.460;2023-11-22T08:48:46;7.00;;;4.50;;
47555;SDS011;33291;46.222;26.460;2023-11-22T08:51:12;7.50;;;4.28;;
47555;SDS011;33291;46.222;26.460;2023-11-22T08:53:38;7.00;;;3.55;;
47555;SDS011;33291;46.222;26.460;2023-11-22T08:56:03;6.82;;;4.35;;
47555;SDS011;33291;46.222;26.460;2023-11-22T08:58:34;8.95;;;4.80;;
47555;SDS011;33291;46.222;26.460;2023-11-22T09:00:59;9.65;;;4.05;;
47555;SDS011;33291;46.222;26.460;2023-11-22T09:03:25;5.40;;;3.20;;
47555;SDS011;33291;46.222;26.460;2023-11-22T09:05:51;5.95;;;3.05;;
47555;SDS011;33291;46.222;26.460;2023-11-22T09:08:18;7.32;;;3.80;;
47555;SDS011;33291;46.222;26.460;2023-11-22T09:10:46;6.30;;;3.72;;
47555;SDS011;33291;46.222;26.460;2023-11-22T09:13:11;8.55;;;3.95;;
47555;SDS011;33291;46.222;26.460;2023-11-22T09:15:41;7.63;;;3.75;;
47555;SDS011;33291;46.222;26.460;2023-11-22T09:18:09;4.57;;;3.03;;
47555;SDS011;33291;46.222;26.460;2023-11-22T09:20:35;5.93;;;3.05;;
47555;SDS011;33291;46.222;26.460;2023-11-22T09:23:01;4.85;;;2.92;;
47555;SDS011;33291;46.222;26.460;2023-11-22T09:25:29;5.88;;;3.33;;
47555;SDS011;33291;46.222;26.460;2023-11-22T09:27:56;6.00;;;3.00;;
47555;SDS011;33291;46.222;26.460;2023-11-22T09:30:33;6.18;;;2.97;;
47555;SDS011;33291;46.222;26.460;2023-11-22T09:35:30;6.57;;;4.22;;
47555;SDS011;33291;46.222;26.460;2023-11-22T09:37:59;8.10;;;3.42;;
47555;SDS011;33291;46.222;26.460;2023-11-22T09:40:27;4.70;;;2.50;;
47555;SDS011;33291;46.222;26.460;2023-11-22T09:42:54;5.63;;;3.00;;
47555;SDS011;33291;46.222;26.460;2023-11-22T09:45:20;5.53;;;3.10;;
47555;SDS011;33291;46.222;26.460;2023-11-22T09:47:46;5.35;;;2.97;;
47555;SDS011;33291;46.222;26.460;2023-11-22T09:53:11;4.45;;;2.20;;
47555;SDS011;33291;46.222;26.460;2023-11-22T09:55:59;2.83;;;1.60;;
47555;SDS011;33291;46.222;26.460;2023-11-22T09:58:28;3.17;;;1.80;;
47555;SDS011;33291;46.222;26.460;2023-11-22T10:00:56;3.78;;;2.03;;
47555;SDS011;33291;46.222;26.460;2023-11-22T10:03:23;2.55;;;1.30;;
47555;SDS011;33291;46.222;26.460;2023-11-22T10:05:49;1.92;;;1.15;;
47555;SDS011;33291;46.222;26.460;2023-11-22T10:08:17;4.65;;;1.75;;
47555;SDS011;33291;46.222;26.460;2023-11-22T10:10:43;3.33;;;1.60;;
47555;SDS011;33291;46.222;26.460;2023-11-22T10:13:12;3.90;;;1.50;;
47555;SDS011;33291;46.222;26.460;2023-11-22T10:15:38;7.63;;;1.33;;
47555;SDS011;33291;46.222;26.460;2023-11-22T10:18:04;2.55;;;1.20;;
47555;SDS011;33291;46.222;26.460;2023-11-22T10:20:39;1.00;;;0.73;;
47555;SDS011;33291;46.222;26.460;2023-11-22T10:25:48;6.10;;;0.85;;
47555;SDS011;33291;46.222;26.460;2023-11-22T10:28:15;3.85;;;1.13;;
47555;SDS011;33291;46.222;26.460;2023-11-22T10:30:43;1.67;;;1.02;;
47555;SDS011;33291;46.222;26.460;2023-11-22T10:33:12;4.80;;;1.67;;
47555;SDS011;33291;46.222;26.460;2023-11-22T10:35:47;4.20;;;2.10;;
47555;SDS011;33291;46.222;26.460;2023-11-22T10:38:13;2.65;;;1.35;;
47555;SDS011;33291;46.222;26.460;2023-11-22T10:40:40;3.72;;;1.38;;
47555;SDS011;33291;46.222;26.460;2023-11-22T10:43:06;3.10;;;1.50;;
47555;SDS011;33291;46.222;26.460;2023-11-22T10:45:35;4.10;;;1.67;;
47555;SDS011;33291;46.222;26.460;2023-11-22T10:48:02;2.55;;;1.10;;
47555;SDS011;33291;46.222;26.460;2023-11-22T10:50:28;3.35;;;1.42;;
47555;SDS011;33291;46.222;26.460;2023-11-22T10:52:56;3.10;;;1.38;;
47555;SDS011;33291;46.222;26.460;2023-11-22T10:55:31;3.95;;;1.42;;
47555;SDS011;33291;46.222;26.460;2023-11-22T10:58:01;2.35;;;1.25;;
47555;SDS011;33291;46.222;26.460;2023-11-22T11:00:27;3.72;;;1.42;;
47555;SDS011;33291;46.222;26.460;2023-11-22T11:03:07;3.22;;;1.17;;
47555;SDS011;33291;46.222;26.460;2023-11-22T11:05:34;1.92;;;1.20;;
47555;SDS011;33291;46.222;26.460;2023-11-22T11:08:07;2.55;;;1.45;;
47555;SDS011;33291;46.222;26.460;2023-11-22T11:10:39;3.08;;;1.52;;
47555;SDS011;33291;46.222;26.460;2023-11-22T11:13:09;3.58;;;1.75;;
47555;SDS011;33291;46.222;26.460;2023-11-22T11:15:36;4.32;;;1.88;;
47555;SDS011;33291;46.222;26.460;2023-11-22T11:18:04;3.08;;;1.85;;
47555;SDS011;33291;46.222;26.460;2023-11-22T11:23:24;12.32;;;6.45;;
47555;SDS011;33291;46.222;26.460;2023-11-22T11:25:55;4.60;;;2.78;;
47555;SDS011;33291;46.222;26.460;2023-11-22T11:28:24;4.15;;;2.17;;
47555;SDS011;33291;46.222;26.460;2023-11-22T11:30:53;4.28;;;2.22;;
47555;SDS011;33291;46.222;26.460;2023-11-22T11:33:26;3.05;;;1.85;;
47555;SDS011;33291;46.222;26.460;2023-11-22T11:35:57;4.65;;;2.35;;
47555;SDS011;33291;46.222;26.460;2023-11-22T11:38:27;7.93;;;2.67;;
47555;SDS011;33291;46.222;26.460;2023-11-22T11:41:06;6.45;;;2.38;;
47555;SDS011;33291;46.222;26.460;2023-11-22T11:43:46;6.45;;;2.13;;
47555;SDS011;33291;46.222;26.460;2023-11-22T11:46:14;2.70;;;1.45;;
47555;SDS011;33291;46.222;26.460;2023-11-22T11:48:59;3.25;;;1.30;;
47555;SDS011;33291;46.222;26.460;2023-11-22T11:51:26;3.65;;;2.10;;
47555;SDS011;33291;46.222;26.460;2023-11-22T11:53:53;4.00;;;2.10;;
47555;SDS011;33291;46.222;26.460;2023-11-22T11:56:20;2.20;;;1.60;;
47555;SDS011;33291;46.222;26.460;2023-11-22T11:58:47;2.97;;;1.35;;
47555;SDS011;33291;46.222;26.460;2023-11-22T12:01:16;2.85;;;1.77;;
47555;SDS011;33291;46.222;26.460;2023-11-22T12:03:45;3.95;;;2.70;;
47555;SDS011;33291;46.222;26.460;2023-11-22T12:06:14;4.28;;;2.33;;
47555;SDS011;33291;46.222;26.460;2023-11-22T12:08:40;4.90;;;3.38;;
47555;SDS011;33291;46.222;26.460;2023-11-22T12:11:06;4.10;;;2.53;;
47555;SDS011;33291;46.222;26.460;2023-11-22T12:13:35;3.92;;;1.90;;
47555;SDS011;33291;46.222;26.460;2023-11-22T12:16:06;4.82;;;3.15;;
47555;SDS011;33291;46.222;26.460;2023-11-22T12:18:43;4.80;;;2.40;;
47555;SDS011;33291;46.222;26.460;2023-11-22T12:21:09;5.30;;;2.75;;
47555;SDS011;33291;46.222;26.460;2023-11-22T12:23:38;6.28;;;2.78;;
47555;SDS011;33291;46.222;26.460;2023-11-22T12:26:04;5.95;;;2.55;;
47555;SDS011;33291;46.222;26.460;2023-11-22T12:28:34;2.90;;;2.00;;
47555;SDS011;33291;46.222;26.460;2023-11-22T12:31:09;4.00;;;2.42;;
47555;SDS011;33291;46.222;26.460;2023-11-22T12:33:36;2.88;;;1.80;;
47555;SDS011;33291;46.222;26.460;2023-11-22T12:36:02;3.88;;;2.10;;
47555;SDS011;33291;46.222;26.460;2023-11-22T12:38:31;4.18;;;2.65;;
47555;SDS011;33291;46.222;26.460;2023-11-22T12:40:57;4.35;;;2.50;;
47555;SDS011;33291;46.222;26.460;2023-11-22T12:43:23;6.07;;;2.28;;
47555;SDS011;33291;46.222;26.460;2023-11-22T12:45:58;6.10;;;2.75;;
47555;SDS011;33291;46.222;26.460;2023-11-22T12:48:25;4.22;;;2.53;;
47555;SDS011;33291;46.222;26.460;2023-11-22T12:50:53;4.43;;;2.67;;
47555;SDS011;33291;46.222;26.460;2023-11-22T12:53:19;4.72;;;2.83;;
47555;SDS011;33291;46.222;26.460;2023-11-22T12:55:47;4.03;;;2.22;;
47555;SDS011;33291;46.222;26.460;2023-11-22T12:58:18;4.43;;;2.58;;
47555;SDS011;33291;46.222;26.460;2023-11-22T13:00:45;4.68;;;2.75;;
47555;SDS011;33291;46.222;26.460;2023-11-22T13:03:11;4.00;;;2.38;;
47555;SDS011;33291;46.222;26.460;2023-11-22T13:05:42;5.32;;;3.30;;
47555;SDS011;33291;46.222;26.460;2023-11-22T13:08:08;4.28;;;2.63;;
47555;SDS011;33291;46.222;26.460;2023-11-22T13:10:43;4.60;;;2.75;;
47555;SDS011;33291;46.222;26.460;2023-11-22T13:13:11;3.78;;;2.40;;
47555;SDS011;33291;46.222;26.460;2023-11-22T13:15:37;5.95;;;3.47;;
47555;SDS011;33291;46.222;26.460;2023-11-22T13:18:05;6.22;;;2.97;;
47555;SDS011;33291;46.222;26.460;2023-11-22T13:20:31;5.80;;;3.90;;
47555;SDS011;33291;46.222;26.460;2023-11-22T13:22:57;3.78;;;2.38;;
47555;SDS011;33291;46.222;26.460;2023-11-22T13:25:24;5.18;;;2.83;;
47555;SDS011;33291;46.222;26.460;2023-11-22T13:27:50;4.60;;;2.95;;
47555;SDS011;33291;46.222;26.460;2023-11-22T13:30:17;6.30;;;3.63;;
47555;SDS011;33291;46.222;26.460;2023-11-22T13:32:47;5.15;;;3.28;;
47555;SDS011;33291;46.222;26.460;2023-11-22T13:35:16;5.30;;;3.25;;
47555;SDS011;33291;46.222;26.460;2023-11-22T13:37:43;6.57;;;4.15;;
47555;SDS011;33291;46.222;26.460;2023-11-22T13:40:10;7.80;;;2.88;;
47555;SDS011;33291;46.222;26.460;2023-11-22T13:42:40;4.72;;;3.28;;
47555;SDS011;33291;46.222;26.460;2023-11-22T13:45:12;7.28;;;2.97;;
47555;SDS011;33291;46.222;26.460;2023-11-22T13:47:45;5.63;;;3.15;;
47555;SDS011;33291;46.222;26.460;2023-11-22T13:50:15;7.15;;;3.78;;
47555;SDS011;33291;46.222;26.460;2023-11-22T13:52:51;8.98;;;4.95;;
47555;SDS011;33291;46.222;26.460;2023-11-22T13:55:18;12.07;;;5.90;;
47555;SDS011;33291;46.222;26.460;2023-11-22T13:57:53;6.45;;;4.05;;
47555;SDS011;33291;46.222;26.460;2023-11-22T14:00:27;5.00;;;2.92;;
47555;SDS011;33291;46.222;26.460;2023-11-22T14:02:58;5.70;;;3.38;;
47555;SDS011;33291;46.222;26.460;2023-11-22T14:05:30;5.30;;;2.88;;
47555;SDS011;33291;46.222;26.460;2023-11-22T14:07:55;5.03;;;2.72;;
47555;SDS011;33291;46.222;26.460;2023-11-22T14:10:21;3.78;;;2.10;;
47555;SDS011;33291;46.222;26.460;2023-11-22T14:12:50;3.97;;;2.67;;
47555;SDS011;33291;46.222;26.460;2023-11-22T14:15:16;5.10;;;3.05;;
47555;SDS011;33291;46.222;26.460;2023-11-22T14:17:43;5.75;;;3.03;;
47555;SDS011;33291;46.222;26.460;2023-11-22T14:20:09;4.20;;;2.45;;
47555;SDS011;33291;46.222;26.460;2023-11-22T14:22:38;5.70;;;2.90;;
47555;SDS011;33291;46.222;26.460;2023-11-22T14:25:07;5.80;;;2.78;;
47555;SDS011;33291;46.222;26.460;2023-11-22T14:27:43;14.23;;;7.68;;
47555;SDS011;33291;46.222;26.460;2023-11-22T14:30:11;6.13;;;3.13;;
47555;SDS011;33291;46.222;26.460;2023-11-22T14:32:42;4.75;;;2.80;;
47555;SDS011;33291;46.222;26.460;2023-11-22T14:35:08;5.93;;;3.08;;
47555;SDS011;33291;46.222;26.460;2023-11-22T14:37:34;10.15;;;3.95;;
47555;SDS011;33291;46.222;26.460;2023-11-22T14:40:00;5.40;;;3.38;;
47555;SDS011;33291;46.222;26.460;2023-11-22T14:42:29;6.32;;;2.85;;
47555;SDS011;33291;46.222;26.460;2023-11-22T14:44:55;6.93;;;2.78;;
47555;SDS011;33291;46.222;26.460;2023-11-22T14:47:20;5.10;;;2.85;;